Latest Weather Observations for Nambour

IDQ60801

Issued at 11:35 pm EST Monday 1 September 2014 (issued every 30 minutes, with the page automatically refreshed every 10 minutes)

About weather observations | Map of weather stations | Latest weather observations for QLD | Other Formats
Station Details ID: 040988 Name: NAMBOUR DAFF - HILLSIDE Lat: -26.64 Lon: 152.94 Height: 53.24 m
Data from the previous 72 hours. | See also: Recent months at Nambour
Date/Time
EST
Temp
°C
App
Temp
°C
Dew
Point
Rel
Hum
%
Delta-T
°C
Wind Press
QNH
hPa
Press
MSL
hPa
Rain
since 9 am
mm
Dir
 
Spd
km/h
Gust
km/h
Spd
kts
Gust
kts
01/11:30pm 15.7 14.6 10.0 69 3.0 NNW 6 15 3 8 1016.8 1016.7 0.0
01/11:00pm 16.8 15.6 9.7 63 3.7 NNW 6 15 3 8 1016.8 1016.7 0.0
01/10:30pm 17.2 15.6 10.3 64 3.7 NNW 9 17 5 9 1016.7 1016.6 0.0
01/10:00pm 14.3 14.8 11.6 84 1.4 CALM 0 4 0 2 1016.9 1016.8 0.0
01/09:30pm 15.6 16.4 12.5 82 1.7 CALM 0 0 0 0 1017.0 1016.9 0.0
01/09:00pm 15.5 16.2 12.3 81 1.7 N 0 0 0 0 1017.1 1017.0 0.0
01/08:30pm 17.2 17.8 13.1 77 2.3 WNW 2 4 1 2 1017.1 1017.0 0.0
01/08:00pm 17.1 18.2 13.6 80 2.0 N 0 0 0 0 1017.0 1016.9 0.0
01/07:30pm 17.5 18.8 14.2 81 1.9 CALM 0 0 0 0 1017.1 1017.0 0.0
01/07:00pm 18.3 19.0 14.6 79 2.1 N 4 7 2 4 1016.7 1016.6 0.0
01/06:30pm 18.9 19.3 14.8 77 2.4 N 6 9 3 5 1016.5 1016.4 0.0
01/06:00pm 19.5 20.2 14.5 73 2.9 NNE 4 9 2 5 1016.1 1016.0 0.0
01/05:30pm 20.3 21.2 14.0 67 3.6 N 2 6 1 3 1016.0 1015.9 0.0
01/05:00pm 21.5 21.2 13.2 59 4.8 NNE 7 15 4 8 1015.6 1015.5 0.0
01/04:30pm 22.4 21.4 12.4 53 5.7 NNE 9 17 5 9 1015.3 1015.2 0.0
01/04:00pm 22.9 20.7 12.2 51 6.1 NNE 15 24 8 13 1014.9 1014.8 0.0
01/03:30pm 23.5 20.5 12.5 50 6.3 E 20 28 11 15 1014.6 1014.5 0.0
01/03:00pm 25.2 22.7 6.4 30 9.8 N 9 17 5 9 1014.9 1014.8 0.0
01/02:30pm 25.4 22.9 6.6 30 9.8 N 9 17 5 9 1015.2 1015.1 0.0
01/02:00pm 25.0 23.2 7.2 32 9.4 NW 6 11 3 6 1015.7 1015.6 0.0
01/01:30pm 25.1 22.4 7.3 32 9.4 NW 11 24 6 13 1016.2 1016.1 0.0
01/01:00pm 24.9 22.4 6.6 31 9.5 N 9 17 5 9 1016.6 1016.5 0.0
01/12:30pm 25.2 21.5 4.3 26 10.4 N 13 24 7 13 1016.9 1016.8 0.0
01/12:00pm 24.5 23.0 10.4 41 7.8 NNE 9 17 5 9 1017.2 1017.1 0.0
01/11:30am 24.0 22.5 10.7 43 7.4 N 9 15 5 8 1017.7 1017.6 0.0
01/11:00am 23.8 22.5 11.2 45 7.1 N 9 15 5 8 1018.4 1018.3 0.0
01/10:30am 23.3 22.3 11.0 46 6.9 NNW 7 11 4 6 1019.2 1019.1 0.0
01/10:00am 22.3 20.9 12.3 53 5.7 NNE 11 17 6 9 1019.5 1019.4 0.0
01/09:30am 21.5 20.4 11.8 54 5.4 N 9 19 5 10 1019.8 1019.8 0.0
01/09:00am 20.3 19.5 12.8 62 4.2 N 9 15 5 8 1020.0 1020.0 0.0
01/08:30am 19.8 20.3 14.0 69 3.4 NE 4 7 2 4 1019.8 1019.8 0.0
01/08:00am 17.9 19.0 13.6 76 2.4 CALM 0 0 0 0 1019.8 1019.8 0.0
01/07:30am 16.3 17.5 13.8 85 1.4 CALM 0 0 0 0 1019.5 1019.5 0.0
01/07:00am 14.1 15.0 12.8 92 0.7 CALM 0 0 0 0 1019.1 1019.1 0.0
01/06:30am 12.7 13.4 12.2 97 0.3 CALM 0 0 0 0 1019.0 1019.0 0.0
01/06:00am 12.7 13.4 12.1 96 0.3 CALM 0 0 0 0 1018.9 1018.9 0.0
01/05:30am 13.1 13.9 12.5 96 0.3 CALM 0 0 0 0 1018.7 1018.7 0.0
01/05:00am 12.9 13.6 12.1 95 0.4 CALM 0 0 0 0 1018.3 1018.3 0.0
01/04:30am 13.6 14.5 13.0 96 0.3 CALM 0 0 0 0 1018.3 1018.3 0.0
01/04:00am 13.6 14.5 12.8 95 0.4 CALM 0 0 0 0 1018.2 1018.2 0.0
01/03:30am 14.0 15.0 13.2 95 0.4 CALM 0 0 0 0 1018.2 1018.2 0.0
01/03:00am 14.1 15.1 13.1 94 0.6 CALM 0 0 0 0 1018.2 1018.2 0.0
01/02:30am 14.3 15.3 13.3 94 0.6 CALM 0 0 0 0 1018.2 1018.2 0.0
01/02:00am 14.6 15.7 13.6 94 0.6 CALM 0 0 0 0 1018.4 1018.4 0.0
01/01:30am 14.4 15.5 13.4 94 0.6 CALM 0 0 0 0 1018.4 1018.4 0.0
01/01:00am 14.4 15.5 13.6 95 0.4 CALM 0 0 0 0 1018.6 1018.6 0.0
01/12:30am 14.8 16.1 14.0 95 0.5 CALM 0 0 0 0 1018.6 1018.6 0.0
01/12:00am 14.4 15.5 13.4 94 0.6 ESE 0 0 0 0 1018.8 1018.8 0.0
 
Date/Time
EST
Temp
°C
App
Temp
°C
Dew
Point
Rel
Hum
%
Delta-T
°C
Wind Press
QNH
hPa
Press
MSL
hPa
Rain
since 9 am
mm
Dir
 
Spd
km/h
Gust
km/h
Spd
kts
Gust
kts
31/11:30pm 14.9 16.0 13.4 91 0.8 CALM 0 0 0 0 1018.9 1018.9 0.0
31/11:00pm 15.1 16.2 13.6 91 0.8 CALM 0 0 0 0 1018.9 1018.9 0.0
31/10:30pm 15.0 16.2 13.9 93 0.6 CALM 0 0 0 0 1019.1 1019.1 0.0
31/10:00pm 14.7 15.9 13.7 94 0.6 CALM 0 0 0 0 1019.0 1019.0 0.0
31/09:30pm 14.6 15.7 13.6 94 0.6 CALM 0 0 0 0 1019.1 1019.1 0.0
31/09:00pm 14.3 15.3 13.2 93 0.6 CALM 0 0 0 0 1018.8 1018.8 0.0
31/08:30pm 14.3 15.2 13.0 92 0.7 CALM 0 0 0 0 1018.9 1018.9 0.0
31/08:00pm 14.9 15.9 13.3 90 0.9 CALM 0 0 0 0 1018.7 1018.7 0.0
31/07:30pm 14.8 15.6 12.5 86 1.3 CALM 0 0 0 0 1018.5 1018.5 0.0
31/07:00pm 15.3 16.1 12.6 84 1.5 CALM 0 0 0 0 1018.1 1018.1 0.0
31/06:30pm 16.5 16.8 12.3 76 2.3 SW 2 4 1 2 1017.8 1017.8 0.0
31/06:00pm 17.6 18.4 12.5 72 2.8 CALM 0 0 0 0 1017.4 1017.4 0.0
31/05:30pm 18.6 18.3 12.8 69 3.3 ENE 6 9 3 5 1017.1 1017.0 0.0
31/05:00pm 19.6 18.7 12.6 64 3.9 E 9 13 5 7 1016.9 1016.8 0.0
31/04:30pm 20.3 19.5 12.8 62 4.3 E 9 13 5 7 1016.6 1016.5 0.0
31/04:00pm 21.0 20.1 12.7 59 4.7 E 9 15 5 8 1016.3 1016.2 0.0
31/03:30pm 21.2 19.5 12.6 58 4.9 E 13 19 7 10 1016.2 1016.1 0.0
31/03:00pm 21.4 20.2 12.8 58 4.9 E 11 15 6 8 1016.1 1016.0 0.0
31/02:30pm 20.6 19.8 11.8 57 4.9 E 7 13 4 7 1016.1 1016.0 0.0
31/02:00pm 21.2 19.3 11.8 55 5.3 E 13 20 7 11 1015.9 1015.8 0.0
31/01:30pm 22.7 21.0 12.3 52 5.9 ENE 13 19 7 10 1016.0 1015.9 0.0
31/01:00pm 21.6 20.5 11.9 54 5.4 ENE 9 17 5 9 1016.4 1016.3 0.0
31/12:30pm 23.7 22.7 10.4 43 7.4 E 6 13 3 7 1016.9 1016.8 0.0
31/12:00pm 22.4 21.6 9.6 44 6.9 E 4 9 2 5 1017.3 1017.2 0.0
31/11:30am 22.9 22.0 10.7 46 6.8 ESE 6 11 3 6 1017.8 1017.8 0.0
31/11:00am 22.4 21.4 10.9 48 6.4 E 7 17 4 9 1018.2 1018.2 0.0
31/10:30am 21.9 20.0 10.4 48 6.3 E 11 17 6 9 1018.6 1018.6 0.0
31/10:00am 21.7 21.2 10.8 50 6.0 ENE 4 13 2 7 1019.0 1019.0 0.0
31/09:30am 21.3 20.5 11.1 52 5.6 E 6 11 3 6 1019.2 1019.2 0.0
31/09:00am 20.4 19.5 10.8 54 5.2 ENE 6 7 3 4 1019.2 1019.2 0.2
31/08:30am 19.3 19.4 11.6 61 4.2 ENE 2 4 1 2 1019.3 1019.3 0.2
31/08:00am 17.5 18.3 12.6 73 2.7 CALM 0 0 0 0 1019.3 1019.3 0.2
31/07:30am 15.4 16.1 12.3 82 1.7 CALM 0 0 0 0 1019.1 1019.1 0.2
31/07:00am 13.3 13.9 11.9 91 0.7 CALM 0 0 0 0 1018.8 1018.8 0.2
31/06:30am 11.7 12.0 10.8 94 0.5 CALM 0 0 0 0 1018.7 1018.7 0.2
31/06:00am 12.1 12.6 11.5 96 0.3 CALM 0 0 0 0 1018.4 1018.4 0.2
31/05:30am 11.8 12.0 10.7 93 0.6 CALM 0 0 0 0 1018.2 1018.2 0.2
31/05:00am 12.4 12.7 11.0 91 0.7 CALM 0 0 0 0 1018.0 1018.0 0.2
31/04:30am 12.8 13.2 11.4 91 0.7 CALM 0 0 0 0 1017.9 1017.9 0.2
31/04:00am 12.5 12.9 11.4 93 0.6 CALM 0 0 0 0 1017.9 1017.9 0.2
31/03:30am 12.7 13.1 11.4 92 0.7 CALM 0 0 0 0 1017.8 1017.8 0.2
31/03:00am 12.6 13.0 11.3 92 0.7 CALM 0 0 0 0 1017.8 1017.8 0.2
31/02:30am 12.6 13.0 11.3 92 0.7 CALM 0 0 0 0 1018.0 1018.0 0.2
31/02:00am 12.8 13.3 11.7 93 0.6 CALM 0 0 0 0 1018.1 1018.1 0.2
31/01:30am 12.9 13.5 11.8 93 0.6 CALM 0 0 0 0 1018.3 1018.3 0.2
31/01:00am 12.3 12.7 11.2 93 0.6 CALM 0 0 0 0 1018.5 1018.5 0.2
31/12:30am 12.4 12.9 11.5 94 0.5 CALM 0 0 0 0 1018.6 1018.6 0.2
31/12:00am 11.9 12.2 10.8 93 0.6 CALM 0 0 0 0 1018.8 1018.8 0.2
 
Date/Time
EST
Temp
°C
App
Temp
°C
Dew
Point
Rel
Hum
%
Delta-T
°C
Wind Press
QNH
hPa
Press
MSL
hPa
Rain
since 9 am
mm
Dir
 
Spd
km/h
Gust
km/h
Spd
kts
Gust
kts
30/11:30pm 12.4 12.8 11.3 93 0.6 CALM 0 0 0 0 1018.9 1018.9 0.2
30/11:00pm 12.5 12.9 11.1 91 0.7 CALM 0 0 0 0 1019.0 1019.0 0.2
30/10:30pm 12.5 12.9 11.1 91 0.7 CALM 0 0 0 0 1018.9 1018.9 0.2
30/10:00pm 12.4 12.7 11.0 91 0.7 CALM 0 0 0 0 1018.9 1018.9 0.2
30/09:30pm 12.6 12.8 10.7 88 1.0 CALM 0 0 0 0 1018.9 1018.9 0.2
30/09:00pm 13.5 13.9 11.2 86 1.2 CALM 0 0 0 0 1018.7 1018.7 0.2
30/08:30pm 13.5 13.7 10.7 83 1.5 CALM 0 0 0 0 1018.9 1018.9 0.2
30/08:00pm 13.8 14.0 10.4 80 1.8 CALM 0 0 0 0 1018.7 1018.7 0.2
30/07:30pm 14.2 14.4 10.6 79 1.9 CALM 0 0 0 0 1018.6 1018.6 0.2
30/07:00pm 14.4 14.5 10.0 75 2.3 CALM 0 2 0 1 1018.4 1018.4 0.2
30/06:30pm 15.7 15.8 10.0 69 3.0 CALM 0 0 0 0 1018.0 1018.0 0.2
30/06:00pm 17.1 16.8 10.2 64 3.7 WNW 2 4 1 2 1017.9 1017.9 0.2
30/05:30pm 18.1 17.3 9.7 58 4.4 ENE 4 9 2 5 1017.6 1017.6 0.2
30/05:00pm 19.1 17.3 9.3 53 5.2 ENE 9 15 5 8 1017.3 1017.2 0.2
30/04:30pm 20.3 18.2 8.3 46 6.3 NE 9 17 5 9 1016.9 1016.8 0.2
30/04:00pm 20.7 18.2 8.4 45 6.4 ENE 11 17 6 9 1016.7 1016.6 0.2
30/03:30pm 21.4 18.8 7.6 41 7.2 ENE 11 17 6 9 1016.4 1016.3 0.2
30/03:00pm 23.6 21.5 6.0 32 9.0 WSW 6 11 3 6 1016.3 1016.2 0.2
30/02:30pm 23.8 21.7 5.7 31 9.2 SE 6 13 3 7 1016.3 1016.2 0.2
30/02:00pm 23.2 20.8 4.2 29 9.3 SE 6 11 3 6 1016.4 1016.3 0.2
30/01:30pm 22.7 19.5 2.8 27 9.5 ESE 9 17 5 9 1016.7 1016.6 0.2
30/01:00pm 22.9 20.2 3.9 29 9.3 S 7 17 4 9 1016.9 1016.8 0.2
30/12:30pm 22.7 20.0 3.8 29 9.2 ESE 7 15 4 8 1017.4 1017.4 0.2
30/12:00pm 22.2 19.4 2.3 27 9.4 SSW 6 11 3 6 1018.0 1018.0 0.2
30/11:30am 22.1 19.3 3.3 29 9.0 E 7 15 4 8 1018.5 1018.5 0.2
30/11:00am 21.7 19.6 5.6 35 8.0 ESE 6 13 3 7 1018.9 1018.9 0.2
30/10:30am 21.4 18.6 5.3 35 8.0 SW 9 17 5 9 1019.3 1019.3 0.0
30/10:00am 20.4 17.8 4.0 34 7.9 SSW 7 13 4 7 1019.6 1019.6 0.0
30/09:30am 19.6 18.4 9.5 52 5.4 ESE 6 11 3 6 1019.9 1019.9 0.0
30/09:00am 19.0 18.4 10.3 57 4.7 E 4 7 2 4 1020.0 1020.0 0.0
30/08:30am 16.6 17.0 11.1 70 3.0 CALM 0 0 0 0 1020.1 1020.1 0.0
30/08:00am 14.5 14.6 10.3 76 2.2 CALM 0 0 0 0 1020.3 1020.3 0.0
30/07:30am 12.5 12.8 10.9 90 0.8 CALM 0 2 0 1 1020.3 1020.3 0.0
30/07:00am 10.4 10.3 9.6 95 0.4 CALM 0 0 0 0 1020.2 1020.2 0.0
30/06:30am 8.8 8.3 8.0 95 0.4 CALM 0 0 0 0 1020.1 1020.1 0.0
30/06:00am 8.3 7.7 7.5 95 0.4 CALM 0 0 0 0 1019.9 1019.9 0.0
30/05:30am 8.6 8.1 7.7 94 0.4 CALM 0 0 0 0 1019.5 1019.5 0.0
30/05:00am 9.2 8.9 8.6 96 0.3 CALM 0 0 0 0 1019.2 1019.2 0.0
30/04:30am 9.0 8.6 8.1 94 0.4 CALM 0 0 0 0 1019.1 1019.1 0.0
30/04:00am 9.5 9.2 8.7 95 0.4 CALM 0 0 0 0 1019.1 1019.1 0.0
30/03:30am 9.6 9.3 8.7 94 0.4 CALM 0 0 0 0 1019.0 1019.0 0.0
30/03:00am 9.5 9.1 8.4 93 0.5 CALM 0 0 0 0 1019.2 1019.2 0.0
30/02:30am 9.8 9.6 8.9 94 0.4 CALM 0 0 0 0 1019.5 1019.5 0.0
30/02:00am 9.8 9.5 8.7 93 0.5 CALM 0 0 0 0 1019.7 1019.7 0.0
30/01:30am 9.8 9.5 8.6 92 0.6 CALM 0 0 0 0 1019.8 1019.8 0.0
30/01:00am 10.0 9.7 8.6 91 0.7 CALM 0 0 0 0 1020.2 1020.2 0.0
30/12:30am 10.2 10.0 9.1 93 0.5 CALM 0 0 0 0 1020.4 1020.4 0.0
30/12:00am 10.4 10.2 9.0 91 0.7 CALM 0 0 0 0 1020.3 1020.3 0.0

Other Formats:

Comma delimited format used in spreadsheet applications
http://www.bom.gov.au/fwo/IDQ60801/IDQ60801.95572.axf

JavaScript Object Notation format (JSON) in row-major order
http://www.bom.gov.au/fwo/IDQ60801/IDQ60801.95572.json